Time;durP1;ratioP1;P1;durP2;ratioP2;P2;SDS_P1;SDS_P2;PMS_P1;PMS_P2;Temp;Humidity;BMP_temperature;BMP_pressure;BME280_temperature;BME280_humidity;BME280_pressure;Samples;Min_cycle;Max_cycle;Signal;HPM_P1;HPM_P2
2022/06/02 00:02:19;;;;;;;2.50;1.70;;;;;;;;;;5026723;28;20122;-85
2022/06/02 00:05:14;;;;;;;3.35;1.90;;;;;;;;;;5025874;28;20058;-85
2022/06/02 00:07:54;;;;;;;1.90;1.67;;;;;;;;;;5026549;28;20050;-85
2022/06/02 00:10:22;;;;;;;3.10;1.80;;;;;;;;;;5025764;28;20092;-85
2022/06/02 00:13:16;;;;;;;3.60;2.00;;;;;;;;;;5025520;28;20045;-85
2022/06/02 00:15:45;;;;;;;3.88;2.08;;;;;;;;;;5026435;28;20058;-85
2022/06/02 00:18:20;;;;;;;5.97;1.95;;;;;;;;;;5027469;28;20066;-85
2022/06/02 00:20:56;;;;;;;3.70;1.83;;;;;;;;;;5026803;28;20034;-84
2022/06/02 00:23:45;;;;;;;3.90;2.00;;;;;;;;;;5025958;28;20037;-85
2022/06/02 00:26:29;;;;;;;2.88;2.13;;;;;;;;;;5024817;28;20038;-84
2022/06/02 00:29:06;;;;;;;4.63;2.08;;;;;;;;;;5027245;28;20069;-85
2022/06/02 00:31:57;;;;;;;3.50;1.80;;;;;;;;;;5025377;28;20038;-85
2022/06/02 00:34:40;;;;;;;4.05;2.10;;;;;;;;;;5026122;28;20076;-85
2022/06/02 00:37:21;;;;;;;4.18;1.90;;;;;;;;;;5026444;28;20037;-84
2022/06/02 00:39:48;;;;;;;2.53;1.70;;;;;;;;;;5027192;28;20360;-85
2022/06/02 00:42:23;;;;;;;2.10;1.80;;;;;;;;;;5025554;28;20076;-84
2022/06/02 00:44:54;;;;;;;4.53;2.20;;;;;;;;;;5025472;28;20030;-84
2022/06/02 00:47:33;;;;;;;2.63;1.80;;;;;;;;;;5026449;28;20041;-84
2022/06/02 00:50:10;;;;;;;2.63;1.90;;;;;;;;;;5025648;28;20060;-85
2022/06/02 00:52:59;;;;;;;3.08;2.17;;;;;;;;;;5026247;28;20041;-84
2022/06/02 00:59:00;;;;;;;4.55;1.95;;;;;;;;;;5026122;28;20029;-85
2022/06/02 01:01:32;;;;;;;2.00;1.80;;;;;;;;;;5026657;28;20030;-85
2022/06/02 01:04:00;;;;;;;2.78;1.95;;;;;;;;;;5025436;28;20034;-84
2022/06/02 01:06:50;;;;;;;2.90;2.00;;;;;;;;;;5026368;28;20030;-85
2022/06/02 01:09:51;;;;;;;3.33;2.10;;;;;;;;;;5024875;28;20057;-84
2022/06/02 01:12:30;;;;;;;3.88;1.83;;;;;;;;;;5024079;28;20029;-85
2022/06/02 01:15:30;;;;;;;3.20;2.10;;;;;;;;;;5023326;28;20401;-85
2022/06/02 01:18:20;;;;;;;3.20;2.00;;;;;;;;;;5025283;28;20049;-85
2022/06/02 01:21:04;;;;;;;3.25;2.10;;;;;;;;;;5026423;28;20040;-84
2022/06/02 01:23:51;;;;;;;3.78;2.05;;;;;;;;;;5026587;28;20113;-84
2022/06/02 01:26:19;;;;;;;2.60;2.15;;;;;;;;;;5025962;28;20033;-85
2022/06/02 01:28:52;;;;;;;4.60;2.03;;;;;;;;;;5026539;28;20033;-84
2022/06/02 01:31:48;;;;;;;3.63;2.00;;;;;;;;;;5025930;28;20395;-84
2022/06/02 01:34:39;;;;;;;2.75;2.00;;;;;;;;;;5025659;28;20386;-84
2022/06/02 01:37:16;;;;;;;1.98;1.77;;;;;;;;;;5026262;28;20034;-84
2022/06/02 01:39:54;;;;;;;3.63;1.90;;;;;;;;;;5025005;28;20042;-85
2022/06/02 01:42:35;;;;;;;4.13;2.10;;;;;;;;;;5025794;28;20042;-85
2022/06/02 01:45:09;;;;;;;4.20;2.25;;;;;;;;;;5024449;28;20064;-85
2022/06/02 01:47:37;;;;;;;4.57;1.98;;;;;;;;;;5024704;28;20487;-84
2022/06/02 01:50:13;;;;;;;2.65;2.22;;;;;;;;;;5026040;28;20033;-84
2022/06/02 01:52:47;;;;;;;3.97;2.20;;;;;;;;;;5024609;28;20033;-84
2022/06/02 01:55:18;;;;;;;;;;;;;;;;;;5025406;28;20038;-85
2022/06/02 01:58:09;;;;;;;2.83;2.08;;;;;;;;;;5026232;28;19913;-85
2022/06/02 02:00:36;;;;;;;3.05;2.08;;;;;;;;;;5016674;28;20556;-85
2022/06/02 02:03:16;;;;;;;5.70;2.33;;;;;;;;;;5025466;28;20387;-84
2022/06/02 02:05:44;;;;;;;4.15;2.05;;;;;;;;;;5025159;28;20045;-84
2022/06/02 02:08:28;;;;;;;4.82;2.00;;;;;;;;;;5025048;28;20578;-84
2022/06/02 02:11:07;;;;;;;2.35;2.00;;;;;;;;;;5026212;28;20041;-84
2022/06/02 02:13:35;;;;;;;2.78;2.05;;;;;;;;;;5025826;28;20042;-85
2022/06/02 02:16:09;;;;;;;5.03;2.08;;;;;;;;;;5025675;28;20033;-85
2022/06/02 02:18:41;;;;;;;3.20;1.90;;;;;;;;;;5025023;28;20437;-84
2022/06/02 02:21:28;;;;;;;4.15;2.03;;;;;;;;;;5026047;28;20053;-83
2022/06/02 02:24:12;;;;;;;3.70;2.15;;;;;;;;;;5026355;28;20053;-84
2022/06/02 02:27:06;;;;;;;2.58;2.10;;;;;;;;;;5026404;28;20044;-85
2022/06/02 02:30:03;;;;;;;3.95;2.10;;;;;;;;;;5019059;28;20100;-85
2022/06/02 02:33:10;;;;;;;3.15;1.98;;;;;;;;;;5026024;28;20101;-84
2022/06/02 02:35:53;;;;;;;4.78;2.08;;;;;;;;;;4967096;28;20042;-84
2022/06/02 02:38:40;;;;;;;3.35;2.00;;;;;;;;;;5022358;28;20133;-84
2022/06/02 02:41:12;;;;;;;3.15;1.88;;;;;;;;;;5025598;28;20117;-84
2022/06/02 02:43:54;;;;;;;3.67;2.00;;;;;;;;;;5024484;28;20037;-84
2022/06/02 02:46:26;;;;;;;3.72;1.92;;;;;;;;;;5025043;28;20038;-84
2022/06/02 02:48:54;;;;;;;3.95;1.85;;;;;;;;;;5025546;28;20060;-84
2022/06/02 02:51:50;;;;;;;2.95;2.00;;;;;;;;;;5026359;28;20490;-85
2022/06/02 02:54:21;;;;;;;3.53;1.88;;;;;;;;;;5025248;28;20042;-85
2022/06/02 02:57:09;;;;;;;2.65;1.85;;;;;;;;;;5025447;28;20041;-84
2022/06/02 02:59:52;;;;;;;2.90;2.08;;;;;;;;;;5025501;28;20069;-85
2022/06/02 03:02:30;;;;;;;2.40;1.83;;;;;;;;;;5024902;28;20033;-84
2022/06/02 03:05:13;;;;;;;2.97;2.10;;;;;;;;;;5024467;28;20038;-85
2022/06/02 03:07:38;;;;;;;5.82;2.00;;;;;;;;;;5025037;28;20060;-83
2022/06/02 03:10:27;;;;;;;4.70;2.00;;;;;;;;;;5024552;28;20034;-85
2022/06/02 03:13:01;;;;;;;3.05;1.77;;;;;;;;;;5025117;28;20044;-84
2022/06/02 03:15:39;;;;;;;3.42;1.90;;;;;;;;;;5024718;28;20034;-84
2022/06/02 03:18:25;;;;;;;3.42;2.10;;;;;;;;;;5023793;28;20034;-85
2022/06/02 03:20:55;;;;;;;4.45;2.10;;;;;;;;;;5024808;28;20041;-84
2022/06/02 03:23:36;;;;;;;5.93;1.90;;;;;;;;;;5023912;28;20049;-84
2022/06/02 03:26:29;;;;;;;3.03;2.08;;;;;;;;;;5024503;28;20058;-85
2022/06/02 03:29:10;;;;;;;2.65;1.88;;;;;;;;;;5024052;28;20041;-84
2022/06/02 03:31:50;;;;;;;3.92;2.20;;;;;;;;;;5024151;28;20094;-84
2022/06/02 03:34:43;;;;;;;3.63;2.00;;;;;;;;;;5028354;28;20095;-85
2022/06/02 03:37:28;;;;;;;2.75;1.90;;;;;;;;;;5029295;28;20502;-84
2022/06/02 03:40:29;;;;;;;2.65;1.80;;;;;;;;;;5028625;28;20117;-84
2022/06/02 03:42:57;;;;;;;4.30;1.95;;;;;;;;;;5027067;28;20057;-85
2022/06/02 03:45:39;;;;;;;3.58;2.30;;;;;;;;;;5026929;28;20029;-85
2022/06/02 03:48:23;;;;;;;2.20;1.88;;;;;;;;;;5028419;28;20313;-84
2022/06/02 03:51:03;;;;;;;5.82;2.17;;;;;;;;;;5027699;28;20034;-84
2022/06/02 03:53:51;;;;;;;3.97;1.70;;;;;;;;;;5027827;28;20041;-84
2022/06/02 03:56:39;;;;;;;2.80;1.70;;;;;;;;;;5026283;28;20025;-84
2022/06/02 03:59:10;;;;;;;3.35;1.80;;;;;;;;;;5028678;28;20021;-85
2022/06/02 04:01:39;;;;;;;3.30;1.83;;;;;;;;;;5029034;28;20044;-84
2022/06/02 04:04:28;;;;;;;3.20;1.80;;;;;;;;;;5027801;28;20029;-83
2022/06/02 04:06:56;;;;;;;3.30;1.85;;;;;;;;;;5027804;28;20056;-85
2022/06/02 04:09:46;;;;;;;3.35;2.00;;;;;;;;;;5028095;28;20029;-85
2022/06/02 04:15:13;;;;;;;4.38;2.10;;;;;;;;;;5016119;28;20050;-84
2022/06/02 04:17:59;;;;;;;3.20;2.08;;;;;;;;;;5028391;28;20116;-85
2022/06/02 04:20:34;;;;;;;2.85;2.10;;;;;;;;;;5027093;28;20045;-85
2022/06/02 04:23:21;;;;;;;2.80;2.10;;;;;;;;;;5027918;28;20034;-85
2022/06/02 04:25:56;;;;;;;3.70;2.20;;;;;;;;;;5025896;28;20128;-85
2022/06/02 04:28:40;;;;;;;3.55;2.10;;;;;;;;;;5027768;28;20042;-85
2022/06/02 04:31:16;;;;;;;3.92;2.25;;;;;;;;;;5028558;28;20044;-84
2022/06/02 04:33:55;;;;;;;4.60;2.40;;;;;;;;;;5027039;28;20065;-85
2022/06/02 04:36:48;;;;;;;4.68;2.50;;;;;;;;;;5025957;28;20029;-84
2022/06/02 04:39:22;;;;;;;2.80;2.08;;;;;;;;;;5026974;28;20050;-85
2022/06/02 04:42:14;;;;;;;2.63;1.90;;;;;;;;;;5026950;28;20513;-84
2022/06/02 04:45:08;;;;;;;2.60;2.15;;;;;;;;;;5022836;28;20041;-84
2022/06/02 04:47:54;;;;;;;3.75;2.00;;;;;;;;;;5026721;28;20487;-85
2022/06/02 04:50:34;;;;;;;3.30;2.13;;;;;;;;;;5025874;28;20069;-85
2022/06/02 04:53:28;;;;;;;5.22;2.30;;;;;;;;;;5025554;28;20042;-84
2022/06/02 04:56:18;;;;;;;3.10;1.90;;;;;;;;;;5025468;28;20108;-85
2022/06/02 04:58:56;;;;;;;5.03;2.25;;;;;;;;;;5027668;28;20030;-85
2022/06/02 05:01:57;;;;;;;2.67;2.28;;;;;;;;;;5027468;28;20053;-84
2022/06/02 05:04:51;;;;;;;5.63;2.20;;;;;;;;;;5026295;28;20046;-85
2022/06/02 05:07:52;;;;;;;2.88;2.03;;;;;;;;;;5025512;28;20038;-85
2022/06/02 05:10:31;;;;;;;4.72;2.15;;;;;;;;;;5026874;28;20044;-84
2022/06/02 05:13:24;;;;;;;3.08;1.77;;;;;;;;;;5026538;28;20057;-85
2022/06/02 05:16:08;;;;;;;2.42;1.70;;;;;;;;;;5024792;28;20121;-85
2022/06/02 05:18:55;;;;;;;2.50;1.77;;;;;;;;;;5026882;28;20060;-83
2022/06/02 05:21:27;;;;;;;2.50;1.92;;;;;;;;;;5025707;28;20065;-84
2022/06/02 05:24:11;;;;;;;4.25;2.03;;;;;;;;;;5026337;28;20053;-84
2022/06/02 05:26:56;;;;;;;2.97;2.17;;;;;;;;;;5025279;28;20562;-85
2022/06/02 05:30:12;;;;;;;3.45;2.03;;;;;;;;;;5026710;28;20425;-84
2022/06/02 05:33:11;;;;;;;2.58;2.17;;;;;;;;;;4985329;28;20082;-84
2022/06/02 05:35:45;;;;;;;3.47;2.10;;;;;;;;;;4967735;28;20081;-84
2022/06/02 05:38:50;;;;;;;2.90;2.30;;;;;;;;;;5013689;28;20068;-84
2022/06/02 05:41:16;;;;;;;2.90;2.10;;;;;;;;;;5026208;28;20446;-85
2022/06/02 05:43:59;;;;;;;2.90;2.20;;;;;;;;;;5052705;22;20047;-82
2022/06/02 05:46:37;;;;;;;;;;;;;;;;;;5075295;28;20047;-81
2022/06/02 05:49:02;;;;;;;2.35;1.83;;;;;;;;;;5056874;28;19979;-81
2022/06/02 05:51:46;;;;;;;4.05;1.95;;;;;;;;;;5073760;28;20062;-82
2022/06/02 05:54:23;;;;;;;3.35;1.98;;;;;;;;;;5074734;28;20493;-82
2022/06/02 05:57:04;;;;;;;2.35;1.90;;;;;;;;;;5074033;28;20032;-82
2022/06/02 05:59:41;;;;;;;2.35;1.60;;;;;;;;;;5074197;28;20036;-82
2022/06/02 06:02:16;;;;;;;3.70;1.75;;;;;;;;;;5074344;28;20028;-83
2022/06/02 06:05:02;;;;;;;3.28;1.70;;;;;;;;;;5075181;28;20029;-82
2022/06/02 06:07:40;;;;;;;4.15;1.50;;;;;;;;;;5075307;28;20111;-82
2022/06/02 06:10:44;;;;;;;2.90;1.70;;;;;;;;;;5075136;28;20447;-82
2022/06/02 06:13:21;;;;;;;2.65;1.80;;;;;;;;;;5075576;28;20055;-81
2022/06/02 06:16:11;;;;;;;4.22;1.85;;;;;;;;;;5073984;28;20044;-82
2022/06/02 06:18:54;;;;;;;1.58;1.48;;;;;;;;;;5057160;28;20037;-80
2022/06/02 06:21:43;;;;;;;;;;;;;;;;;;5073857;28;20469;-81
2022/06/02 06:24:27;;;;;;;2.20;1.50;;;;;;;;;;5037594;28;19916;-83
2022/06/02 06:27:17;;;;;;;4.85;1.48;;;;;;;;;;5053967;28;20041;-84
2022/06/02 06:30:10;;;;;;;2.90;1.55;;;;;;;;;;5054276;28;20029;-83
2022/06/02 06:32:50;;;;;;;2.22;1.40;;;;;;;;;;5054567;28;20036;-82
2022/06/02 06:35:53;;;;;;;1.45;1.30;;;;;;;;;;5055027;28;20091;-83
2022/06/02 06:39:10;;;;;;;2.90;1.67;;;;;;;;;;5054389;28;20037;-83
2022/06/02 06:41:38;;;;;;;2.85;1.50;;;;;;;;;;5016922;28;20041;-83
2022/06/02 06:44:45;;;;;;;3.58;1.50;;;;;;;;;;5050656;28;20106;-82
2022/06/02 06:47:39;;;;;;;1.80;1.20;;;;;;;;;;5032603;28;20116;-84
2022/06/02 06:50:14;;;;;;;1.50;1.38;;;;;;;;;;5055243;28;20594;-82
2022/06/02 06:53:00;;;;;;;3.28;1.55;;;;;;;;;;5056941;28;20037;-84
2022/06/02 06:55:50;;;;;;;1.80;1.30;;;;;;;;;;5056155;28;20031;-84
2022/06/02 06:58:49;;;;;;;1.55;1.40;;;;;;;;;;5056341;28;20037;-84
2022/06/02 07:01:25;;;;;;;1.92;1.45;;;;;;;;;;5057770;28;20033;-84
2022/06/02 07:04:29;;;;;;;3.53;1.40;;;;;;;;;;5056414;28;20037;-84
2022/06/02 07:07:36;;;;;;;3.47;1.40;;;;;;;;;;5018469;28;20507;-84
2022/06/02 07:10:07;;;;;;;3.95;1.60;;;;;;;;;;5059982;28;20037;-84
2022/06/02 07:13:18;;;;;;;2.85;1.55;;;;;;;;;;5060627;28;20527;-84
2022/06/02 07:16:02;;;;;;;3.17;1.55;;;;;;;;;;5027025;28;20667;-84
2022/06/02 07:18:36;;;;;;;3.17;1.40;;;;;;;;;;5060996;28;20086;-84
2022/06/02 07:21:20;;;;;;;3.95;2.00;;;;;;;;;;5061385;28;20033;-84
2022/06/02 07:24:17;;;;;;;1.40;1.20;;;;;;;;;;5060697;28;20060;-84
2022/06/02 07:27:06;;;;;;;2.63;1.40;;;;;;;;;;5061507;28;20041;-84
2022/06/02 07:29:55;;;;;;;1.63;1.20;;;;;;;;;;5061851;28;20041;-84
2022/06/02 07:32:31;;;;;;;4.63;1.58;;;;;;;;;;5062172;28;20032;-84
2022/06/02 07:35:34;;;;;;;4.07;1.40;;;;;;;;;;5060458;28;20025;-84
2022/06/02 07:38:38;;;;;;;1.67;1.20;;;;;;;;;;5061284;28;20787;-84
2022/06/02 07:41:16;;;;;;;3.33;1.85;;;;;;;;;;5061475;28;20129;-84
2022/06/02 07:43:44;;;;;;;2.25;1.50;;;;;;;;;;5060514;28;20070;-83
2022/06/02 07:46:41;;;;;;;2.63;1.48;;;;;;;;;;5061136;28;20029;-84
2022/06/02 07:49:35;;;;;;;1.60;1.30;;;;;;;;;;5061828;28;20064;-84
2022/06/02 07:52:19;;;;;;;3.03;1.52;;;;;;;;;;5059411;28;20036;-84
2022/06/02 07:55:06;;;;;;;4.20;1.50;;;;;;;;;;5060018;28;20040;-84
2022/06/02 07:57:50;;;;;;;2.15;1.50;;;;;;;;;;5043266;28;20098;-84
2022/06/02 08:00:18;;;;;;;3.05;1.58;;;;;;;;;;5059945;28;20078;-84
2022/06/02 08:03:08;;;;;;;3.70;1.40;;;;;;;;;;5059924;28;20036;-83
2022/06/02 08:05:44;;;;;;;3.53;1.48;;;;;;;;;;5058747;28;20485;-84
2022/06/02 08:08:38;;;;;;;2.42;1.48;;;;;;;;;;5059712;28;20490;-84
2022/06/02 08:11:33;;;;;;;2.50;1.58;;;;;;;;;;5059002;28;20036;-84
2022/06/02 08:14:16;;;;;;;3.72;1.42;;;;;;;;;;5055884;28;20029;-84
2022/06/02 08:16:46;;;;;;;2.33;1.50;;;;;;;;;;5075554;28;20033;-83
2022/06/02 08:19:28;;;;;;;1.45;1.33;;;;;;;;;;5077765;28;20417;-83
2022/06/02 08:21:59;;;;;;;2.30;1.40;;;;;;;;;;5061610;28;20140;-81
2022/06/02 08:24:36;;;;;;;2.30;1.20;;;;;;;;;;5039927;28;20033;-83
2022/06/02 08:27:28;;;;;;;3.25;1.67;;;;;;;;;;5058934;28;20500;-82
2022/06/02 08:29:56;;;;;;;2.25;1.45;;;;;;;;;;5057891;28;20060;-81
2022/06/02 08:32:30;;;;;;;1.48;1.35;;;;;;;;;;5057492;28;20111;-83
2022/06/02 08:35:17;;;;;;;2.08;1.50;;;;;;;;;;5063867;28;20136;-82
2022/06/02 08:38:00;;;;;;;2.63;1.40;;;;;;;;;;5057555;28;20037;-84
2022/06/02 08:40:58;;;;;;;1.77;1.30;;;;;;;;;;5055799;28;20094;-84
2022/06/02 08:43:59;;;;;;;1.98;1.30;;;;;;;;;;5056757;28;20032;-84
2022/06/02 08:46:38;;;;;;;4.43;1.45;;;;;;;;;;5055396;28;20067;-84
2022/06/02 08:49:33;;;;;;;1.55;1.20;;;;;;;;;;5039311;28;20039;-84
2022/06/02 08:52:32;;;;;;;2.17;1.30;;;;;;;;;;5065456;28;20516;-83
2022/06/02 08:55:19;;;;;;;1.70;1.30;;;;;;;;;;5055257;28;20484;-85
2022/06/02 08:58:19;;;;;;;1.95;1.25;;;;;;;;;;5055251;28;20060;-84
2022/06/02 09:01:11;;;;;;;4.75;1.60;;;;;;;;;;5054929;28;20037;-84
2022/06/02 09:03:55;;;;;;;3.00;1.45;;;;;;;;;;5055148;28;20468;-85
2022/06/02 09:06:50;;;;;;;3.17;1.30;;;;;;;;;;5056706;28;20037;-84
2022/06/02 09:09:28;;;;;;;3.53;1.50;;;;;;;;;;5056631;28;20106;-84
2022/06/02 09:12:09;;;;;;;3.15;1.50;;;;;;;;;;5055394;28;20039;-84
2022/06/02 09:14:41;;;;;;;3.40;1.63;;;;;;;;;;5056539;28;20037;-85
2022/06/02 09:17:07;;;;;;;2.40;1.50;;;;;;;;;;5057347;28;20048;-84
2022/06/02 09:19:45;;;;;;;2.55;1.40;;;;;;;;;;5056204;28;20028;-84
2022/06/02 09:22:10;;;;;;;2.97;1.42;;;;;;;;;;5056977;28;20041;-84
2022/06/02 09:24:50;;;;;;;6.57;1.50;;;;;;;;;;5056701;28;20033;-84
2022/06/02 09:27:24;;;;;;;2.30;1.40;;;;;;;;;;5056127;28;20029;-84
2022/06/02 09:29:59;;;;;;;1.83;1.40;;;;;;;;;;5056640;28;20379;-85
2022/06/02 09:32:40;;;;;;;3.63;1.58;;;;;;;;;;5055717;28;20040;-84
2022/06/02 09:35:15;;;;;;;2.92;1.38;;;;;;;;;;5057055;28;20123;-85
2022/06/02 09:38:00;;;;;;;2.20;1.25;;;;;;;;;;5056329;28;20029;-85
2022/06/02 09:40:47;;;;;;;1.92;1.40;;;;;;;;;;5055566;28;20029;-84
2022/06/02 09:43:21;;;;;;;1.67;1.40;;;;;;;;;;5056564;28;20029;-84
2022/06/02 09:45:54;;;;;;;2.63;1.40;;;;;;;;;;5056196;28;20497;-84
2022/06/02 09:48:26;;;;;;;2.10;1.60;;;;;;;;;;5040606;28;20045;-84
2022/06/02 09:51:21;;;;;;;4.22;1.70;;;;;;;;;;5041717;28;20071;-84
2022/06/02 09:54:07;;;;;;;2.45;1.60;;;;;;;;;;5053417;28;20128;-84
2022/06/02 09:57:00;;;;;;;2.40;1.58;;;;;;;;;;5054760;28;20025;-84
2022/06/02 09:59:28;;;;;;;2.03;1.60;;;;;;;;;;5055361;28;20041;-84
2022/06/02 10:02:00;;;;;;;3.60;1.50;;;;;;;;;;5054903;28;20286;-84
2022/06/02 10:04:49;;;;;;;2.25;1.52;;;;;;;;;;5054538;28;20040;-85
2022/06/02 10:07:31;;;;;;;3.42;1.50;;;;;;;;;;5053960;28;20033;-84
2022/06/02 10:10:15;;;;;;;2.70;1.60;;;;;;;;;;5055009;28;20040;-84
2022/06/02 10:13:06;;;;;;;2.08;1.55;;;;;;;;;;5055544;28;20068;-84
2022/06/02 10:15:38;;;;;;;6.18;1.88;;;;;;;;;;5055565;28;20056;-85
2022/06/02 10:18:18;;;;;;;3.47;1.70;;;;;;;;;;5056037;28;20041;-84
2022/06/02 10:21:21;;;;;;;2.97;1.60;;;;;;;;;;5054648;28;20044;-85
2022/06/02 10:24:05;;;;;;;3.70;1.88;;;;;;;;;;5054676;28;20037;-84
2022/06/02 10:27:03;;;;;;;2.67;1.60;;;;;;;;;;5055348;28;20039;-84
2022/06/02 10:29:56;;;;;;;4.07;1.55;;;;;;;;;;5054466;28;20043;-84
2022/06/02 10:32:21;;;;;;;2.28;1.60;;;;;;;;;;5054072;28;20089;-86
2022/06/02 10:35:24;;;;;;;4.03;1.60;;;;;;;;;;5053458;28;20029;-84
2022/06/02 10:38:21;;;;;;;3.90;1.60;;;;;;;;;;5053441;28;20032;-83
2022/06/02 10:40:50;;;;;;;3.00;1.60;;;;;;;;;;5055171;28;20058;-84
2022/06/02 10:43:49;;;;;;;3.55;1.50;;;;;;;;;;5053916;28;20041;-84
2022/06/02 10:46:27;;;;;;;3.05;1.60;;;;;;;;;;5054075;28;20039;-85
2022/06/02 10:49:16;;;;;;;2.22;1.63;;;;;;;;;;5056146;28;20032;-85
2022/06/02 10:52:13;;;;;;;4.53;1.70;;;;;;;;;;5054871;28;20041;-84
2022/06/02 10:55:07;;;;;;;3.95;1.60;;;;;;;;;;5052157;28;20044;-85
2022/06/02 10:57:57;;;;;;;2.03;1.60;;;;;;;;;;5055648;28;20033;-84
2022/06/02 11:00:53;;;;;;;3.33;1.60;;;;;;;;;;5056351;28;20073;-84
2022/06/02 11:03:53;;;;;;;3.03;1.50;;;;;;;;;;5053329;28;20060;-84
2022/06/02 11:06:30;;;;;;;3.97;1.50;;;;;;;;;;5053619;28;20040;-84
2022/06/02 11:09:14;;;;;;;2.38;1.40;;;;;;;;;;5053284;28;20041;-85
2022/06/02 11:12:04;;;;;;;2.03;1.50;;;;;;;;;;5055870;28;20052;-85
2022/06/02 11:14:48;;;;;;;3.35;1.50;;;;;;;;;;5053576;28;20111;-85
2022/06/02 11:17:33;;;;;;;3.25;1.67;;;;;;;;;;5053914;28;20504;-84
2022/06/02 11:20:29;;;;;;;2.58;1.50;;;;;;;;;;5054880;28;20041;-84
2022/06/02 11:23:26;;;;;;;2.88;1.30;;;;;;;;;;5051955;28;20040;-85
2022/06/02 11:26:16;;;;;;;2.60;1.40;;;;;;;;;;5053477;28;20029;-84
2022/06/02 11:29:22;;;;;;;2.72;1.45;;;;;;;;;;5054964;28;20123;-83
2022/06/02 11:32:10;;;;;;;2.30;1.33;;;;;;;;;;5053942;28;20478;-84
2022/06/02 11:34:57;;;;;;;2.60;1.50;;;;;;;;;;5052934;28;20051;-83
2022/06/02 11:37:46;;;;;;;2.47;1.52;;;;;;;;;;5055112;28;20481;-83
2022/06/02 11:40:37;;;;;;;3.75;1.48;;;;;;;;;;5053900;28;20029;-86
2022/06/02 11:43:16;;;;;;;2.08;1.40;;;;;;;;;;5057097;28;20029;-84
2022/06/02 11:46:04;;;;;;;3.22;1.48;;;;;;;;;;5087328;23;20051;-84
2022/06/02 11:48:35;;;;;;;1.73;1.15;;;;;;;;;;5079232;28;20111;-85
2022/06/02 11:51:28;;;;;;;2.85;1.40;;;;;;;;;;5079202;28;20040;-85
2022/06/02 11:54:35;;;;;;;3.97;1.60;;;;;;;;;;5080851;28;20041;-85
2022/06/02 11:57:17;;;;;;;4.82;1.45;;;;;;;;;;5080835;28;20040;-85
2022/06/02 12:00:21;;;;;;;2.90;1.50;;;;;;;;;;5082328;28;20052;-85
2022/06/02 12:03:00;;;;;;;2.55;1.40;;;;;;;;;;5082837;28;20033;-85
2022/06/02 12:05:55;;;;;;;2.05;1.40;;;;;;;;;;5082235;28;20033;-85
2022/06/02 12:08:33;;;;;;;1.63;1.15;;;;;;;;;;5082693;28;20059;-85
2022/06/02 12:11:16;;;;;;;2.13;1.20;;;;;;;;;;5082182;28;20037;-85
2022/06/02 12:13:45;;;;;;;;;;;;;;;;;;5081610;28;20400;-84
2022/06/02 12:16:30;;;;;;;5.15;1.30;;;;;;;;;;5082213;28;20319;-85
2022/06/02 12:19:08;;;;;;;2.05;1.23;;;;;;;;;;5081008;28;20036;-85
2022/06/02 12:22:01;;;;;;;1.65;1.33;;;;;;;;;;5080572;28;20051;-85
2022/06/02 12:25:14;;;;;;;2.33;1.33;;;;;;;;;;5082087;28;20111;-85
2022/06/02 12:27:40;;;;;;;3.58;1.55;;;;;;;;;;5081773;28;20104;-85
2022/06/02 12:30:11;;;;;;;2.75;1.50;;;;;;;;;;5082548;28;20040;-85
2022/06/02 12:33:16;;;;;;;2.78;1.40;;;;;;;;;;5083704;28;20043;-85
2022/06/02 12:36:13;;;;;;;2.35;1.40;;;;;;;;;;5058796;28;20032;-85
2022/06/02 12:38:47;;;;;;;2.80;1.30;;;;;;;;;;5083376;28;20078;-86
2022/06/02 12:41:44;;;;;;;1.77;1.10;;;;;;;;;;5082998;28;20447;-85
2022/06/02 12:44:33;;;;;;;1.52;1.10;;;;;;;;;;5080516;28;20067;-85
2022/06/02 12:47:41;;;;;;;2.85;1.40;;;;;;;;;;5080602;28;20036;-86
2022/06/02 12:50:18;;;;;;;1.23;1.13;;;;;;;;;;5043460;28;20055;-85
2022/06/02 12:53:08;;;;;;;2.15;1.10;;;;;;;;;;5081760;28;20025;-85
2022/06/02 12:56:11;;;;;;;2.70;1.60;;;;;;;;;;5079495;28;20481;-85
2022/06/02 12:58:46;;;;;;;1.92;1.20;;;;;;;;;;5081339;28;20032;-87
2022/06/02 13:01:14;;;;;;;3.08;1.23;;;;;;;;;;5080038;28;20086;-85
2022/06/02 13:03:45;;;;;;;1.40;1.17;;;;;;;;;;5081463;28;20021;-85
2022/06/02 13:06:45;;;;;;;1.73;1.30;;;;;;;;;;5078621;28;20028;-85
2022/06/02 13:09:16;;;;;;;1.85;1.30;;;;;;;;;;5081468;28;20068;-87
2022/06/02 13:12:02;;;;;;;3.05;1.30;;;;;;;;;;5080504;28;20036;-85
2022/06/02 13:14:58;;;;;;;1.52;1.20;;;;;;;;;;5081936;28;20481;-85
2022/06/02 13:17:33;;;;;;;2.65;1.40;;;;;;;;;;5082513;28;20051;-85
2022/06/02 13:20:17;;;;;;;3.63;1.50;;;;;;;;;;5081447;28;20123;-85
2022/06/02 13:23:20;;;;;;;2.53;1.38;;;;;;;;;;5079723;28;20036;-85
2022/06/02 13:26:15;;;;;;;2.47;1.30;;;;;;;;;;5079565;28;20028;-85
2022/06/02 13:29:21;;;;;;;2.67;1.20;;;;;;;;;;5081163;28;20041;-86
2022/06/02 13:32:22;;;;;;;3.40;1.35;;;;;;;;;;5067806;28;20068;-86
2022/06/02 13:35:06;;;;;;;1.30;1.08;;;;;;;;;;5080742;28;20040;-85
2022/06/02 13:38:05;;;;;;;2.45;1.13;;;;;;;;;;5081358;28;20492;-85
2022/06/02 13:40:33;;;;;;;1.50;1.20;;;;;;;;;;5081837;28;20039;-85
2022/06/02 13:43:18;;;;;;;6.35;1.30;;;;;;;;;;5081366;28;20036;-85
2022/06/02 13:46:25;;;;;;;1.42;1.25;;;;;;;;;;5044137;28;1056622;-85
2022/06/02 13:49:02;;;;;;;2.72;1.13;;;;;;;;;;5080578;28;20103;-85
2022/06/02 13:51:46;;;;;;;3.53;1.30;;;;;;;;;;5082892;28;20119;-85
2022/06/02 13:57:44;;;;;;;1.80;1.30;;;;;;;;;;5082546;28;20032;-85
2022/06/02 14:00:19;;;;;;;2.17;1.73;;;;;;;;;;5081125;28;20127;-86
2022/06/02 14:02:50;;;;;;;4.07;1.80;;;;;;;;;;5082654;28;20028;-85
2022/06/02 14:05:41;;;;;;;1.95;1.40;;;;;;;;;;5081524;28;20029;-85
2022/06/02 14:08:58;;;;;;;3.75;1.30;;;;;;;;;;5064609;28;20054;-85
2022/06/02 14:11:26;;;;;;;3.83;1.33;;;;;;;;;;5056273;28;20044;-85
2022/06/02 14:14:11;;;;;;;2.08;1.30;;;;;;;;;;5082873;28;20086;-86
2022/06/02 14:16:48;;;;;;;4.10;1.50;;;;;;;;;;5081115;28;20078;-85
2022/06/02 14:19:42;;;;;;;4.90;1.40;;;;;;;;;;5082609;28;20044;-87
2022/06/02 14:22:35;;;;;;;2.60;1.60;;;;;;;;;;5085233;28;20115;-87
2022/06/02 14:25:45;;;;;;;2.08;1.35;;;;;;;;;;5085363;28;20070;-87
2022/06/02 14:28:25;;;;;;;2.67;1.50;;;;;;;;;;5024828;28;20048;-86
2022/06/02 14:31:21;;;;;;;2.70;1.45;;;;;;;;;;5087457;28;20040;-85
2022/06/02 14:34:12;;;;;;;4.75;1.60;;;;;;;;;;5084432;28;20584;-85
2022/06/02 14:36:59;;;;;;;3.80;1.50;;;;;;;;;;5054939;28;20504;-87
2022/06/02 14:39:44;;;;;;;2.50;1.50;;;;;;;;;;5085004;28;20068;-88
2022/06/02 14:45:53;;;;;;;4.13;1.65;;;;;;;;;;5084284;28;20041;-87
2022/06/02 14:48:34;;;;;;;2.67;1.58;;;;;;;;;;5084891;28;20039;-87
2022/06/02 14:51:21;;;;;;;1.60;1.30;;;;;;;;;;5084119;28;20051;-86
2022/06/02 14:53:56;;;;;;;3.60;1.38;;;;;;;;;;5083507;28;20037;-86
2022/06/02 14:56:43;;;;;;;2.45;1.50;;;;;;;;;;5084088;28;20443;-87
2022/06/02 14:59:36;;;;;;;3.40;1.40;;;;;;;;;;5085627;28;20079;-87
2022/06/02 15:02:20;;;;;;;2.42;1.60;;;;;;;;;;5084972;28;20052;-87
2022/06/02 15:05:07;;;;;;;2.42;1.50;;;;;;;;;;5066747;28;20036;-87
2022/06/02 15:07:53;;;;;;;1.85;1.35;;;;;;;;;;5085526;28;20036;-86
2022/06/02 15:10:29;;;;;;;2.35;1.50;;;;;;;;;;5084752;28;20036;-87
2022/06/02 15:13:31;;;;;;;5.88;1.73;;;;;;;;;;5084419;28;20519;-87
2022/06/02 15:16:18;;;;;;;2.72;1.60;;;;;;;;;;5083640;28;20046;-87
2022/06/02 15:19:02;;;;;;;3.47;1.50;;;;;;;;;;5084821;28;20024;-88
2022/06/02 15:21:47;;;;;;;2.50;1.45;;;;;;;;;;5084101;28;20228;-88
2022/06/02 15:24:34;;;;;;;2.35;1.60;;;;;;;;;;5083309;28;20103;-87
2022/06/02 15:27:38;;;;;;;3.97;1.88;;;;;;;;;;5084806;28;20535;-87
2022/06/02 15:30:13;;;;;;;2.58;1.70;;;;;;;;;;5075898;28;20366;-88
2022/06/02 15:32:50;;;;;;;2.88;1.63;;;;;;;;;;5084324;28;20048;-89
2022/06/02 15:35:37;;;;;;;1.52;1.30;;;;;;;;;;5080178;28;20029;-86
2022/06/02 15:38:31;;;;;;;2.25;1.40;;;;;;;;;;5083295;28;20058;-85
2022/06/02 15:41:14;;;;;;;2.10;1.60;;;;;;;;;;5084078;28;20044;-86
2022/06/02 15:43:58;;;;;;;1.70;1.40;;;;;;;;;;5083593;28;20086;-86
2022/06/02 15:46:39;;;;;;;;;;;;;;;;;;5082569;28;20075;-86
2022/06/02 15:49:42;;;;;;;2.72;1.70;;;;;;;;;;5084174;28;19957;-86
2022/06/02 15:52:51;;;;;;;3.00;1.60;;;;;;;;;;5082199;28;20040;-85
2022/06/02 15:55:26;;;;;;;1.60;1.40;;;;;;;;;;5083445;28;20404;-86
2022/06/02 15:58:13;;;;;;;3.20;1.58;;;;;;;;;;5082052;28;20086;-86
2022/06/02 16:00:53;;;;;;;3.42;1.48;;;;;;;;;;5082778;28;20044;-86
2022/06/02 16:03:31;;;;;;;3.47;1.70;;;;;;;;;;5085645;28;20040;-85
2022/06/02 16:06:31;;;;;;;6.07;1.90;;;;;;;;;;5082989;28;20060;-86
2022/06/02 16:12:39;;;;;;;3.17;1.60;;;;;;;;;;5083569;28;20412;-85
2022/06/02 16:15:25;;;;;;;2.53;1.73;;;;;;;;;;5082399;28;20036;-86
2022/06/02 16:18:08;;;;;;;2.38;1.67;;;;;;;;;;5081951;28;20044;-86
2022/06/02 16:20:40;;;;;;;;;;;;;;;;;;5084421;28;20051;-83
2022/06/02 16:23:29;;;;;;;2.63;1.80;;;;;;;;;;5082787;28;19912;-86
2022/06/02 16:26:31;;;;;;;2.42;1.60;;;;;;;;;;5082081;28;20041;-86
2022/06/02 16:29:09;;;;;;;2.58;1.80;;;;;;;;;;5064789;28;20040;-86
2022/06/02 16:31:54;;;;;;;4.70;1.65;;;;;;;;;;5081860;28;20041;-86
2022/06/02 16:34:47;;;;;;;2.95;1.67;;;;;;;;;;5082007;28;20036;-85
2022/06/02 16:37:19;;;;;;;2.25;1.45;;;;;;;;;;5082888;28;20044;-85
2022/06/02 16:40:14;;;;;;;3.03;1.63;;;;;;;;;;5082049;28;20485;-86
2022/06/02 16:42:40;;;;;;;2.42;1.60;;;;;;;;;;5082320;28;20066;-84
2022/06/02 16:45:37;;;;;;;2.13;1.60;;;;;;;;;;5080190;28;20040;-85
2022/06/02 16:48:28;;;;;;;3.22;1.60;;;;;;;;;;5080389;28;20106;-85